sensor_id;sensor_type;location;lat;lon;timestamp;P1;durP1;ratioP1;P2;durP2;ratioP2
53833;SDS011;39735;51.432;5.482;2023-09-18T00:00:26;18.07;;;10.97;;
53833;SDS011;39735;51.432;5.482;2023-09-18T00:02:51;28.47;;;12.10;;
53833;SDS011;39735;51.432;5.482;2023-09-18T00:05:16;22.67;;;12.13;;
53833;SDS011;39735;51.432;5.482;2023-09-18T00:07:42;17.77;;;11.55;;
53833;SDS011;39735;51.432;5.482;2023-09-18T00:10:09;20.42;;;11.30;;
53833;SDS011;39735;51.432;5.482;2023-09-18T00:12:34;31.30;;;13.05;;
53833;SDS011;39735;51.432;5.482;2023-09-18T00:14:59;16.05;;;11.48;;
53833;SDS011;39735;51.432;5.482;2023-09-18T00:17:24;13.37;;;11.20;;
53833;SDS011;39735;51.432;5.482;2023-09-18T00:19:50;15.03;;;12.57;;
53833;SDS011;39735;51.432;5.482;2023-09-18T00:22:16;22.75;;;11.65;;
53833;SDS011;39735;51.432;5.482;2023-09-18T00:24:42;25.98;;;10.25;;
53833;SDS011;39735;51.432;5.482;2023-09-18T00:27:07;14.20;;;11.65;;
53833;SDS011;39735;51.432;5.482;2023-09-18T00:29:32;15.73;;;11.00;;
53833;SDS011;39735;51.432;5.482;2023-09-18T00:31:57;19.60;;;11.97;;
53833;SDS011;39735;51.432;5.482;2023-09-18T00:34:23;23.95;;;12.15;;
53833;SDS011;39735;51.432;5.482;2023-09-18T00:36:48;25.07;;;11.00;;
53833;SDS011;39735;51.432;5.482;2023-09-18T00:39:13;18.77;;;11.75;;
53833;SDS011;39735;51.432;5.482;2023-09-18T00:41:40;20.23;;;10.50;;
53833;SDS011;39735;51.432;5.482;2023-09-18T00:44:06;16.52;;;11.98;;
53833;SDS011;39735;51.432;5.482;2023-09-18T00:46:31;23.55;;;10.90;;
53833;SDS011;39735;51.432;5.482;2023-09-18T00:48:56;21.60;;;10.82;;
53833;SDS011;39735;51.432;5.482;2023-09-18T00:51:22;23.50;;;12.18;;
53833;SDS011;39735;51.432;5.482;2023-09-18T00:53:47;28.88;;;10.32;;
53833;SDS011;39735;51.432;5.482;2023-09-18T00:56:13;13.48;;;9.95;;
53833;SDS011;39735;51.432;5.482;2023-09-18T00:58:39;19.00;;;10.02;;
53833;SDS011;39735;51.432;5.482;2023-09-18T01:01:04;13.70;;;9.48;;
53833;SDS011;39735;51.432;5.482;2023-09-18T01:03:29;14.82;;;9.88;;
53833;SDS011;39735;51.432;5.482;2023-09-18T01:05:55;21.45;;;10.93;;
53833;SDS011;39735;51.432;5.482;2023-09-18T01:08:20;18.30;;;10.68;;
53833;SDS011;39735;51.432;5.482;2023-09-18T01:13:13;20.17;;;11.20;;
53833;SDS011;39735;51.432;5.482;2023-09-18T01:15:44;12.88;;;9.02;;
53833;SDS011;39735;51.432;5.482;2023-09-18T01:18:13;25.05;;;11.15;;
53833;SDS011;39735;51.432;5.482;2023-09-18T01:20:38;15.73;;;9.25;;
53833;SDS011;39735;51.432;5.482;2023-09-18T01:23:04;23.13;;;8.73;;
53833;SDS011;39735;51.432;5.482;2023-09-18T01:25:30;26.73;;;10.60;;
53833;SDS011;39735;51.432;5.482;2023-09-18T01:27:56;26.40;;;10.98;;
53833;SDS011;39735;51.432;5.482;2023-09-18T01:30:21;11.40;;;8.70;;
53833;SDS011;39735;51.432;5.482;2023-09-18T01:32:46;13.40;;;8.90;;
53833;SDS011;39735;51.432;5.482;2023-09-18T01:35:11;36.30;;;9.60;;
53833;SDS011;39735;51.432;5.482;2023-09-18T01:37:37;10.77;;;8.93;;
53833;SDS011;39735;51.432;5.482;2023-09-18T01:40:03;22.20;;;9.00;;
53833;SDS011;39735;51.432;5.482;2023-09-18T01:42:31;12.23;;;9.05;;
53833;SDS011;39735;51.432;5.482;2023-09-18T01:44:57;16.00;;;7.75;;
53833;SDS011;39735;51.432;5.482;2023-09-18T01:47:22;27.83;;;8.33;;
53833;SDS011;39735;51.432;5.482;2023-09-18T01:49:51;14.57;;;8.02;;
53833;SDS011;39735;51.432;5.482;2023-09-18T01:52:17;15.80;;;7.57;;
53833;SDS011;39735;51.432;5.482;2023-09-18T01:54:42;14.18;;;7.78;;
53833;SDS011;39735;51.432;5.482;2023-09-18T01:57:08;43.83;;;10.63;;
53833;SDS011;39735;51.432;5.482;2023-09-18T01:59:33;13.03;;;7.40;;
53833;SDS011;39735;51.432;5.482;2023-09-18T02:01:59;60.42;;;8.82;;
53833;SDS011;39735;51.432;5.482;2023-09-18T02:04:24;16.13;;;7.03;;
53833;SDS011;39735;51.432;5.482;2023-09-18T02:06:50;23.27;;;6.88;;
53833;SDS011;39735;51.432;5.482;2023-09-18T02:09:17;16.77;;;7.40;;
53833;SDS011;39735;51.432;5.482;2023-09-18T02:11:44;17.25;;;6.60;;
53833;SDS011;39735;51.432;5.482;2023-09-18T02:14:09;29.83;;;10.75;;
53833;SDS011;39735;51.432;5.482;2023-09-18T02:16:39;14.43;;;6.30;;
53833;SDS011;39735;51.432;5.482;2023-09-18T02:19:07;22.00;;;6.43;;
53833;SDS011;39735;51.432;5.482;2023-09-18T02:21:33;10.05;;;6.43;;
53833;SDS011;39735;51.432;5.482;2023-09-18T02:23:58;6.15;;;5.60;;
53833;SDS011;39735;51.432;5.482;2023-09-18T02:26:24;12.32;;;7.40;;
53833;SDS011;39735;51.432;5.482;2023-09-18T02:28:51;10.23;;;5.53;;
53833;SDS011;39735;51.432;5.482;2023-09-18T02:31:17;14.88;;;6.13;;
53833;SDS011;39735;51.432;5.482;2023-09-18T02:33:42;20.57;;;6.67;;
53833;SDS011;39735;51.432;5.482;2023-09-18T02:36:07;14.30;;;6.68;;
53833;SDS011;39735;51.432;5.482;2023-09-18T02:38:33;28.57;;;7.30;;
53833;SDS011;39735;51.432;5.482;2023-09-18T02:40:58;21.38;;;7.50;;
53833;SDS011;39735;51.432;5.482;2023-09-18T02:43:23;14.98;;;6.88;;
53833;SDS011;39735;51.432;5.482;2023-09-18T02:45:49;19.48;;;6.85;;
53833;SDS011;39735;51.432;5.482;2023-09-18T02:48:15;13.05;;;6.95;;
53833;SDS011;39735;51.432;5.482;2023-09-18T02:50:40;32.17;;;9.07;;
53833;SDS011;39735;51.432;5.482;2023-09-18T02:53:06;17.50;;;7.78;;
53833;SDS011;39735;51.432;5.482;2023-09-18T02:55:31;34.38;;;6.68;;
53833;SDS011;39735;51.432;5.482;2023-09-18T02:57:56;23.63;;;8.13;;
53833;SDS011;39735;51.432;5.482;2023-09-18T03:00:22;23.77;;;6.73;;
53833;SDS011;39735;51.432;5.482;2023-09-18T03:02:47;28.90;;;7.10;;
53833;SDS011;39735;51.432;5.482;2023-09-18T03:05:12;14.35;;;6.85;;
53833;SDS011;39735;51.432;5.482;2023-09-18T03:07:37;29.58;;;7.18;;
53833;SDS011;39735;51.432;5.482;2023-09-18T03:10:03;33.05;;;6.65;;
53833;SDS011;39735;51.432;5.482;2023-09-18T03:12:29;12.30;;;5.68;;
53833;SDS011;39735;51.432;5.482;2023-09-18T03:14:55;15.80;;;6.15;;
53833;SDS011;39735;51.432;5.482;2023-09-18T03:17:20;32.50;;;6.27;;
53833;SDS011;39735;51.432;5.482;2023-09-18T03:19:47;25.47;;;8.23;;
53833;SDS011;39735;51.432;5.482;2023-09-18T03:22:12;23.40;;;6.38;;
53833;SDS011;39735;51.432;5.482;2023-09-18T03:24:38;31.52;;;5.95;;
53833;SDS011;39735;51.432;5.482;2023-09-18T03:27:03;8.90;;;5.37;;
53833;SDS011;39735;51.432;5.482;2023-09-18T03:29:28;20.85;;;5.00;;
53833;SDS011;39735;51.432;5.482;2023-09-18T03:31:55;16.42;;;5.28;;
53833;SDS011;39735;51.432;5.482;2023-09-18T03:34:23;29.35;;;7.63;;
53833;SDS011;39735;51.432;5.482;2023-09-18T03:36:51;40.10;;;7.15;;
53833;SDS011;39735;51.432;5.482;2023-09-18T03:39:16;53.70;;;6.60;;
53833;SDS011;39735;51.432;5.482;2023-09-18T03:41:41;37.67;;;7.03;;
53833;SDS011;39735;51.432;5.482;2023-09-18T03:44:06;18.23;;;5.53;;
53833;SDS011;39735;51.432;5.482;2023-09-18T03:46:32;19.88;;;6.72;;
53833;SDS011;39735;51.432;5.482;2023-09-18T03:48:57;37.40;;;8.50;;
53833;SDS011;39735;51.432;5.482;2023-09-18T03:51:23;27.55;;;6.90;;
53833;SDS011;39735;51.432;5.482;2023-09-18T03:53:48;17.30;;;6.80;;
53833;SDS011;39735;51.432;5.482;2023-09-18T03:56:13;27.40;;;7.03;;
53833;SDS011;39735;51.432;5.482;2023-09-18T03:58:39;27.27;;;6.63;;
53833;SDS011;39735;51.432;5.482;2023-09-18T04:01:04;24.17;;;7.18;;
53833;SDS011;39735;51.432;5.482;2023-09-18T04:03:29;40.78;;;9.27;;
53833;SDS011;39735;51.432;5.482;2023-09-18T04:05:55;31.73;;;7.00;;
53833;SDS011;39735;51.432;5.482;2023-09-18T04:08:20;30.48;;;8.52;;
53833;SDS011;39735;51.432;5.482;2023-09-18T04:10:45;16.80;;;6.73;;
53833;SDS011;39735;51.432;5.482;2023-09-18T04:13:10;27.95;;;7.47;;
53833;SDS011;39735;51.432;5.482;2023-09-18T04:15:36;32.53;;;7.05;;
53833;SDS011;39735;51.432;5.482;2023-09-18T04:18:03;16.13;;;5.93;;
53833;SDS011;39735;51.432;5.482;2023-09-18T04:20:28;15.57;;;6.18;;
53833;SDS011;39735;51.432;5.482;2023-09-18T04:25:37;35.00;;;9.82;;
53833;SDS011;39735;51.432;5.482;2023-09-18T04:28:03;19.60;;;6.23;;
53833;SDS011;39735;51.432;5.482;2023-09-18T04:30:28;31.45;;;8.75;;
53833;SDS011;39735;51.432;5.482;2023-09-18T04:32:53;21.73;;;6.33;;
53833;SDS011;39735;51.432;5.482;2023-09-18T04:35:19;13.90;;;7.18;;
53833;SDS011;39735;51.432;5.482;2023-09-18T04:37:44;8.52;;;5.65;;
53833;SDS011;39735;51.432;5.482;2023-09-18T04:40:10;19.67;;;5.43;;
53833;SDS011;39735;51.432;5.482;2023-09-18T04:42:36;10.30;;;6.45;;
53833;SDS011;39735;51.432;5.482;2023-09-18T04:45:01;18.77;;;6.75;;
53833;SDS011;39735;51.432;5.482;2023-09-18T04:47:27;11.63;;;5.32;;
53833;SDS011;39735;51.432;5.482;2023-09-18T04:49:52;7.27;;;4.43;;
53833;SDS011;39735;51.432;5.482;2023-09-18T04:52:17;10.70;;;3.80;;
53833;SDS011;39735;51.432;5.482;2023-09-18T04:54:42;25.83;;;4.30;;
53833;SDS011;39735;51.432;5.482;2023-09-18T04:57:08;5.20;;;4.00;;
53833;SDS011;39735;51.432;5.482;2023-09-18T04:59:33;11.80;;;4.50;;
53833;SDS011;39735;51.432;5.482;2023-09-18T05:01:58;11.27;;;3.93;;
53833;SDS011;39735;51.432;5.482;2023-09-18T05:04:23;15.90;;;3.13;;
53833;SDS011;39735;51.432;5.482;2023-09-18T05:06:48;16.30;;;3.60;;
53833;SDS011;39735;51.432;5.482;2023-09-18T05:09:14;10.77;;;3.65;;
53833;SDS011;39735;51.432;5.482;2023-09-18T05:11:39;18.17;;;4.70;;
53833;SDS011;39735;51.432;5.482;2023-09-18T05:14:06;13.43;;;2.80;;
53833;SDS011;39735;51.432;5.482;2023-09-18T05:16:32;8.48;;;3.25;;
53833;SDS011;39735;51.432;5.482;2023-09-18T05:18:57;6.27;;;2.47;;
53833;SDS011;39735;51.432;5.482;2023-09-18T05:21:22;9.57;;;2.53;;
53833;SDS011;39735;51.432;5.482;2023-09-18T05:23:50;11.77;;;5.45;;
53833;SDS011;39735;51.432;5.482;2023-09-18T05:26:15;8.65;;;2.67;;
53833;SDS011;39735;51.432;5.482;2023-09-18T05:28:41;12.45;;;2.88;;
53833;SDS011;39735;51.432;5.482;2023-09-18T05:31:07;4.45;;;2.55;;
53833;SDS011;39735;51.432;5.482;2023-09-18T05:33:32;13.67;;;3.83;;
53833;SDS011;39735;51.432;5.482;2023-09-18T05:35:58;32.05;;;3.28;;
53833;SDS011;39735;51.432;5.482;2023-09-18T05:38:23;25.13;;;4.00;;
53833;SDS011;39735;51.432;5.482;2023-09-18T05:40:48;11.75;;;3.35;;
53833;SDS011;39735;51.432;5.482;2023-09-18T05:43:13;5.57;;;2.35;;
53833;SDS011;39735;51.432;5.482;2023-09-18T05:45:39;8.18;;;2.22;;
53833;SDS011;39735;51.432;5.482;2023-09-18T05:48:05;7.47;;;1.77;;
53833;SDS011;39735;51.432;5.482;2023-09-18T05:50:30;1.70;;;1.52;;
53833;SDS011;39735;51.432;5.482;2023-09-18T05:52:57;4.45;;;2.40;;
53833;SDS011;39735;51.432;5.482;2023-09-18T05:55:28;12.38;;;2.00;;
53833;SDS011;39735;51.432;5.482;2023-09-18T05:57:53;5.22;;;2.15;;
53833;SDS011;39735;51.432;5.482;2023-09-18T06:00:19;3.42;;;1.40;;
53833;SDS011;39735;51.432;5.482;2023-09-18T06:02:44;10.80;;;3.58;;
53833;SDS011;39735;51.432;5.482;2023-09-18T06:05:10;3.70;;;1.95;;
53833;SDS011;39735;51.432;5.482;2023-09-18T06:07:41;5.13;;;2.15;;
53833;SDS011;39735;51.432;5.482;2023-09-18T06:10:06;10.45;;;2.67;;
53833;SDS011;39735;51.432;5.482;2023-09-18T06:12:32;3.03;;;1.95;;
53833;SDS011;39735;51.432;5.482;2023-09-18T06:14:57;7.47;;;1.80;;
53833;SDS011;39735;51.432;5.482;2023-09-18T06:17:22;17.43;;;2.77;;
53833;SDS011;39735;51.432;5.482;2023-09-18T06:19:48;6.90;;;1.35;;
53833;SDS011;39735;51.432;5.482;2023-09-18T06:22:14;4.90;;;2.03;;
53833;SDS011;39735;51.432;5.482;2023-09-18T06:24:39;12.68;;;2.88;;
53833;SDS011;39735;51.432;5.482;2023-09-18T06:27:05;6.95;;;1.58;;
53833;SDS011;39735;51.432;5.482;2023-09-18T06:29:30;6.72;;;2.25;;
53833;SDS011;39735;51.432;5.482;2023-09-18T06:31:56;5.00;;;2.38;;
53833;SDS011;39735;51.432;5.482;2023-09-18T06:34:21;35.83;;;3.85;;
53833;SDS011;39735;51.432;5.482;2023-09-18T06:36:46;8.50;;;2.35;;
53833;SDS011;39735;51.432;5.482;2023-09-18T06:39:12;3.63;;;2.00;;
53833;SDS011;39735;51.432;5.482;2023-09-18T06:41:37;9.20;;;2.37;;
53833;SDS011;39735;51.432;5.482;2023-09-18T06:44:02;6.40;;;1.73;;
53833;SDS011;39735;51.432;5.482;2023-09-18T06:46:28;25.30;;;2.05;;
53833;SDS011;39735;51.432;5.482;2023-09-18T06:48:53;3.30;;;2.60;;
53833;SDS011;39735;51.432;5.482;2023-09-18T06:51:18;6.75;;;2.25;;
53833;SDS011;39735;51.432;5.482;2023-09-18T06:53:43;3.58;;;1.70;;
53833;SDS011;39735;51.432;5.482;2023-09-18T06:56:09;14.65;;;2.50;;
53833;SDS011;39735;51.432;5.482;2023-09-18T06:58:34;19.77;;;3.22;;
53833;SDS011;39735;51.432;5.482;2023-09-18T07:00:59;17.73;;;3.40;;
53833;SDS011;39735;51.432;5.482;2023-09-18T07:03:24;5.93;;;1.73;;
53833;SDS011;39735;51.432;5.482;2023-09-18T07:05:50;1.73;;;1.23;;
53833;SDS011;39735;51.432;5.482;2023-09-18T07:08:15;13.02;;;3.75;;
53833;SDS011;39735;51.432;5.482;2023-09-18T07:10:44;15.55;;;1.88;;
53833;SDS011;39735;51.432;5.482;2023-09-18T07:13:09;10.75;;;1.55;;
53833;SDS011;39735;51.432;5.482;2023-09-18T07:15:34;6.78;;;1.13;;
53833;SDS011;39735;51.432;5.482;2023-09-18T07:18:00;1.35;;;1.00;;
53833;SDS011;39735;51.432;5.482;2023-09-18T07:20:25;6.33;;;2.60;;
53833;SDS011;39735;51.432;5.482;2023-09-18T07:22:50;3.42;;;1.55;;
53833;SDS011;39735;51.432;5.482;2023-09-18T07:25:16;14.90;;;3.37;;
53833;SDS011;39735;51.432;5.482;2023-09-18T07:27:41;8.35;;;2.70;;
53833;SDS011;39735;51.432;5.482;2023-09-18T07:30:10;11.50;;;3.60;;
53833;SDS011;39735;51.432;5.482;2023-09-18T07:32:36;2.38;;;1.60;;
53833;SDS011;39735;51.432;5.482;2023-09-18T07:35:01;5.57;;;1.90;;
53833;SDS011;39735;51.432;5.482;2023-09-18T07:37:26;4.70;;;1.25;;
53833;SDS011;39735;51.432;5.482;2023-09-18T07:39:52;7.75;;;2.10;;
53833;SDS011;39735;51.432;5.482;2023-09-18T07:42:18;5.95;;;1.38;;
53833;SDS011;39735;51.432;5.482;2023-09-18T07:44:43;4.80;;;1.47;;
53833;SDS011;39735;51.432;5.482;2023-09-18T07:47:08;8.32;;;1.88;;
53833;SDS011;39735;51.432;5.482;2023-09-18T07:49:33;6.07;;;2.03;;
53833;SDS011;39735;51.432;5.482;2023-09-18T07:51:59;17.00;;;2.72;;
53833;SDS011;39735;51.432;5.482;2023-09-18T07:54:24;5.23;;;2.00;;
53833;SDS011;39735;51.432;5.482;2023-09-18T07:56:49;2.95;;;1.40;;
53833;SDS011;39735;51.432;5.482;2023-09-18T07:59:14;3.30;;;2.33;;
53833;SDS011;39735;51.432;5.482;2023-09-18T08:01:40;11.10;;;1.93;;
53833;SDS011;39735;51.432;5.482;2023-09-18T08:04:05;5.25;;;1.50;;
53833;SDS011;39735;51.432;5.482;2023-09-18T08:06:31;5.75;;;3.92;;
53833;SDS011;39735;51.432;5.482;2023-09-18T08:08:56;2.13;;;1.10;;
53833;SDS011;39735;51.432;5.482;2023-09-18T08:11:21;1.87;;;1.20;;
53833;SDS011;39735;51.432;5.482;2023-09-18T08:13:46;5.90;;;1.90;;
53833;SDS011;39735;51.432;5.482;2023-09-18T08:16:12;2.50;;;1.20;;
53833;SDS011;39735;51.432;5.482;2023-09-18T08:18:38;4.30;;;1.40;;
53833;SDS011;39735;51.432;5.482;2023-09-18T08:21:06;5.20;;;1.95;;
53833;SDS011;39735;51.432;5.482;2023-09-18T08:23:31;10.55;;;2.50;;
53833;SDS011;39735;51.432;5.482;2023-09-18T08:25:57;5.95;;;2.63;;
53833;SDS011;39735;51.432;5.482;2023-09-18T08:28:23;5.43;;;3.10;;
53833;SDS011;39735;51.432;5.482;2023-09-18T08:30:48;27.33;;;2.22;;
53833;SDS011;39735;51.432;5.482;2023-09-18T08:33:14;5.90;;;1.58;;
53833;SDS011;39735;51.432;5.482;2023-09-18T08:35:39;8.85;;;2.58;;
53833;SDS011;39735;51.432;5.482;2023-09-18T08:38:05;41.85;;;3.17;;
53833;SDS011;39735;51.432;5.482;2023-09-18T08:40:30;2.97;;;2.17;;
53833;SDS011;39735;51.432;5.482;2023-09-18T08:42:55;6.40;;;1.67;;
53833;SDS011;39735;51.432;5.482;2023-09-18T08:45:30;9.40;;;1.88;;
53833;SDS011;39735;51.432;5.482;2023-09-18T08:47:58;8.45;;;2.17;;
53833;SDS011;39735;51.432;5.482;2023-09-18T08:50:24;12.65;;;2.05;;
53833;SDS011;39735;51.432;5.482;2023-09-18T08:52:50;6.05;;;3.55;;
53833;SDS011;39735;51.432;5.482;2023-09-18T08:55:16;10.68;;;3.90;;
53833;SDS011;39735;51.432;5.482;2023-09-18T08:57:41;9.48;;;2.22;;
53833;SDS011;39735;51.432;5.482;2023-09-18T09:00:07;5.07;;;1.60;;
53833;SDS011;39735;51.432;5.482;2023-09-18T09:02:34;10.88;;;2.58;;
53833;SDS011;39735;51.432;5.482;2023-09-18T09:05:00;11.13;;;1.73;;
53833;SDS011;39735;51.432;5.482;2023-09-18T09:07:26;10.70;;;2.50;;
53833;SDS011;39735;51.432;5.482;2023-09-18T09:09:51;7.32;;;2.95;;
53833;SDS011;39735;51.432;5.482;2023-09-18T09:12:18;12.75;;;3.05;;
53833;SDS011;39735;51.432;5.482;2023-09-18T09:15:02;4.78;;;2.30;;
53833;SDS011;39735;51.432;5.482;2023-09-18T09:17:27;23.05;;;2.53;;
53833;SDS011;39735;51.432;5.482;2023-09-18T09:19:53;7.17;;;2.40;;
53833;SDS011;39735;51.432;5.482;2023-09-18T09:22:32;22.85;;;2.10;;
53833;SDS011;39735;51.432;5.482;2023-09-18T09:24:59;16.50;;;3.30;;
53833;SDS011;39735;51.432;5.482;2023-09-18T09:27:24;10.17;;;2.43;;
53833;SDS011;39735;51.432;5.482;2023-09-18T09:29:58;23.85;;;3.47;;
53833;SDS011;39735;51.432;5.482;2023-09-18T09:32:24;17.45;;;3.65;;
53833;SDS011;39735;51.432;5.482;2023-09-18T09:34:49;14.03;;;3.07;;
53833;SDS011;39735;51.432;5.482;2023-09-18T09:37:14;6.50;;;1.90;;
53833;SDS011;39735;51.432;5.482;2023-09-18T09:39:47;23.30;;;3.92;;
53833;SDS011;39735;51.432;5.482;2023-09-18T09:42:14;13.02;;;2.38;;
53833;SDS011;39735;51.432;5.482;2023-09-18T09:44:40;9.55;;;2.92;;
53833;SDS011;39735;51.432;5.482;2023-09-18T09:47:05;16.95;;;4.00;;
53833;SDS011;39735;51.432;5.482;2023-09-18T09:49:31;13.65;;;2.63;;
53833;SDS011;39735;51.432;5.482;2023-09-18T09:52:17;9.13;;;2.83;;
53833;SDS011;39735;51.432;5.482;2023-09-18T09:54:46;12.57;;;2.63;;
53833;SDS011;39735;51.432;5.482;2023-09-18T09:57:11;13.70;;;2.88;;
53833;SDS011;39735;51.432;5.482;2023-09-18T09:59:37;5.10;;;3.03;;
53833;SDS011;39735;51.432;5.482;2023-09-18T10:02:02;19.07;;;2.63;;
53833;SDS011;39735;51.432;5.482;2023-09-18T10:04:28;8.63;;;2.17;;
53833;SDS011;39735;51.432;5.482;2023-09-18T10:06:58;15.32;;;2.58;;
53833;SDS011;39735;51.432;5.482;2023-09-18T10:09:24;6.55;;;2.95;;
53833;SDS011;39735;51.432;5.482;2023-09-18T10:11:52;11.07;;;2.63;;
53833;SDS011;39735;51.432;5.482;2023-09-18T10:14:20;8.25;;;2.42;;
53833;SDS011;39735;51.432;5.482;2023-09-18T10:16:52;16.88;;;2.25;;
53833;SDS011;39735;51.432;5.482;2023-09-18T10:19:27;27.70;;;3.20;;
53833;SDS011;39735;51.432;5.482;2023-09-18T10:21:59;10.77;;;2.75;;
53833;SDS011;39735;51.432;5.482;2023-09-18T10:24:26;8.80;;;2.53;;
53833;SDS011;39735;51.432;5.482;2023-09-18T10:26:57;2.28;;;1.90;;
53833;SDS011;39735;51.432;5.482;2023-09-18T10:29:23;8.10;;;2.70;;
53833;SDS011;39735;51.432;5.482;2023-09-18T10:31:50;11.27;;;2.38;;
53833;SDS011;39735;51.432;5.482;2023-09-18T10:34:15;5.15;;;2.25;;
53833;SDS011;39735;51.432;5.482;2023-09-18T10:36:41;33.92;;;2.58;;
53833;SDS011;39735;51.432;5.482;2023-09-18T10:39:09;12.23;;;2.63;;
53833;SDS011;39735;51.432;5.482;2023-09-18T10:41:37;8.63;;;2.72;;
53833;SDS011;39735;51.432;5.482;2023-09-18T10:44:02;10.18;;;2.40;;
53833;SDS011;39735;51.432;5.482;2023-09-18T10:46:30;8.63;;;4.20;;
53833;SDS011;39735;51.432;5.482;2023-09-18T10:48:56;3.22;;;2.53;;
53833;SDS011;39735;51.432;5.482;2023-09-18T10:51:23;5.55;;;3.25;;
53833;SDS011;39735;51.432;5.482;2023-09-18T10:53:48;8.82;;;3.67;;
53833;SDS011;39735;51.432;5.482;2023-09-18T10:56:14;3.10;;;1.67;;
53833;SDS011;39735;51.432;5.482;2023-09-18T10:58:40;16.23;;;3.17;;
53833;SDS011;39735;51.432;5.482;2023-09-18T11:01:06;6.07;;;2.85;;
53833;SDS011;39735;51.432;5.482;2023-09-18T11:03:34;10.88;;;2.97;;
53833;SDS011;39735;51.432;5.482;2023-09-18T11:06:07;23.42;;;4.28;;
53833;SDS011;39735;51.432;5.482;2023-09-18T11:08:35;24.40;;;3.75;;
53833;SDS011;39735;51.432;5.482;2023-09-18T11:11:05;9.43;;;3.53;;
53833;SDS011;39735;51.432;5.482;2023-09-18T11:13:49;8.18;;;3.58;;
53833;SDS011;39735;51.432;5.482;2023-09-18T11:18:45;10.63;;;3.83;;
53833;SDS011;39735;51.432;5.482;2023-09-18T11:21:11;18.33;;;4.22;;
53833;SDS011;39735;51.432;5.482;2023-09-18T11:23:37;11.25;;;3.17;;
53833;SDS011;39735;51.432;5.482;2023-09-18T11:26:03;8.82;;;3.30;;
53833;SDS011;39735;51.432;5.482;2023-09-18T11:28:29;6.95;;;3.05;;
53833;SDS011;39735;51.432;5.482;2023-09-18T11:30:57;6.70;;;2.60;;
53833;SDS011;39735;51.432;5.482;2023-09-18T11:33:33;12.88;;;2.97;;
53833;SDS011;39735;51.432;5.482;2023-09-18T11:36:03;2.45;;;2.15;;
53833;SDS011;39735;51.432;5.482;2023-09-18T11:38:31;16.88;;;2.85;;
53833;SDS011;39735;51.432;5.482;2023-09-18T11:40:58;6.25;;;3.85;;
53833;SDS011;39735;51.432;5.482;2023-09-18T11:43:27;11.85;;;2.35;;
53833;SDS011;39735;51.432;5.482;2023-09-18T11:45:56;4.72;;;2.33;;
53833;SDS011;39735;51.432;5.482;2023-09-18T11:48:25;2.50;;;2.38;;
53833;SDS011;39735;51.432;5.482;2023-09-18T11:50:53;10.18;;;3.60;;
53833;SDS011;39735;51.432;5.482;2023-09-18T11:53:19;14.75;;;5.05;;
53833;SDS011;39735;51.432;5.482;2023-09-18T11:55:45;25.95;;;3.20;;
53833;SDS011;39735;51.432;5.482;2023-09-18T11:58:10;9.88;;;2.35;;
53833;SDS011;39735;51.432;5.482;2023-09-18T12:00:36;17.87;;;2.47;;
53833;SDS011;39735;51.432;5.482;2023-09-18T12:03:17;5.10;;;2.40;;
53833;SDS011;39735;51.432;5.482;2023-09-18T12:05:50;4.45;;;2.80;;
53833;SDS011;39735;51.432;5.482;2023-09-18T12:08:15;3.28;;;2.03;;
53833;SDS011;39735;51.432;5.482;2023-09-18T12:10:41;4.75;;;2.25;;
53833;SDS011;39735;51.432;5.482;2023-09-18T12:13:06;7.97;;;2.25;;
53833;SDS011;39735;51.432;5.482;2023-09-18T12:15:34;5.65;;;2.88;;
53833;SDS011;39735;51.432;5.482;2023-09-18T12:18:07;8.25;;;2.55;;
53833;SDS011;39735;51.432;5.482;2023-09-18T12:20:32;12.63;;;3.38;;
53833;SDS011;39735;51.432;5.482;2023-09-18T12:22:59;16.27;;;3.35;;
53833;SDS011;39735;51.432;5.482;2023-09-18T12:25:25;9.02;;;2.45;;
53833;SDS011;39735;51.432;5.482;2023-09-18T12:27:53;20.20;;;4.60;;
53833;SDS011;39735;51.432;5.482;2023-09-18T12:30:19;4.47;;;1.65;;
53833;SDS011;39735;51.432;5.482;2023-09-18T12:32:45;10.00;;;4.40;;
53833;SDS011;39735;51.432;5.482;2023-09-18T12:35:13;13.13;;;2.70;;
53833;SDS011;39735;51.432;5.482;2023-09-18T12:37:41;11.85;;;2.67;;
53833;SDS011;39735;51.432;5.482;2023-09-18T12:40:07;16.63;;;3.55;;
53833;SDS011;39735;51.432;5.482;2023-09-18T12:42:39;10.23;;;2.45;;
53833;SDS011;39735;51.432;5.482;2023-09-18T12:45:06;10.13;;;4.82;;
53833;SDS011;39735;51.432;5.482;2023-09-18T12:47:31;3.40;;;1.98;;
53833;SDS011;39735;51.432;5.482;2023-09-18T12:50:01;6.70;;;2.47;;
53833;SDS011;39735;51.432;5.482;2023-09-18T12:52:27;6.22;;;2.35;;
53833;SDS011;39735;51.432;5.482;2023-09-18T12:54:54;15.40;;;2.92;;
53833;SDS011;39735;51.432;5.482;2023-09-18T12:57:21;6.63;;;2.67;;
53833;SDS011;39735;51.432;5.482;2023-09-18T12:59:46;9.55;;;2.58;;
53833;SDS011;39735;51.432;5.482;2023-09-18T13:02:16;17.48;;;3.03;;
53833;SDS011;39735;51.432;5.482;2023-09-18T13:04:47;28.50;;;5.25;;
53833;SDS011;39735;51.432;5.482;2023-09-18T13:07:15;12.00;;;3.00;;
53833;SDS011;39735;51.432;5.482;2023-09-18T13:09:42;8.13;;;4.38;;
53833;SDS011;39735;51.432;5.482;2023-09-18T13:12:08;3.45;;;3.17;;
53833;SDS011;39735;51.432;5.482;2023-09-18T13:17:17;9.98;;;3.08;;
53833;SDS011;39735;51.432;5.482;2023-09-18T13:19:43;11.90;;;3.22;;
53833;SDS011;39735;51.432;5.482;2023-09-18T13:22:08;12.50;;;3.37;;
53833;SDS011;39735;51.432;5.482;2023-09-18T13:24:33;13.60;;;3.05;;
53833;SDS011;39735;51.432;5.482;2023-09-18T13:26:59;3.90;;;2.45;;
53833;SDS011;39735;51.432;5.482;2023-09-18T13:29:24;5.43;;;2.53;;
53833;SDS011;39735;51.432;5.482;2023-09-18T13:31:50;2.58;;;2.22;;
53833;SDS011;39735;51.432;5.482;2023-09-18T13:34:16;13.07;;;2.53;;
53833;SDS011;39735;51.432;5.482;2023-09-18T13:36:44;7.15;;;2.33;;
53833;SDS011;39735;51.432;5.482;2023-09-18T13:39:10;9.98;;;4.38;;
53833;SDS011;39735;51.432;5.482;2023-09-18T13:41:36;21.83;;;3.30;;
53833;SDS011;39735;51.432;5.482;2023-09-18T13:44:01;20.48;;;2.65;;
53833;SDS011;39735;51.432;5.482;2023-09-18T13:46:27;2.75;;;2.05;;
53833;SDS011;39735;51.432;5.482;2023-09-18T13:48:52;2.50;;;2.20;;
53833;SDS011;39735;51.432;5.482;2023-09-18T13:51:17;8.00;;;4.00;;
53833;SDS011;39735;51.432;5.482;2023-09-18T13:53:43;9.83;;;3.10;;
53833;SDS011;39735;51.432;5.482;2023-09-18T13:56:08;6.43;;;2.50;;
53833;SDS011;39735;51.432;5.482;2023-09-18T13:58:33;7.45;;;2.95;;
53833;SDS011;39735;51.432;5.482;2023-09-18T14:01:00;8.75;;;2.80;;
53833;SDS011;39735;51.432;5.482;2023-09-18T14:03:25;10.55;;;2.13;;
53833;SDS011;39735;51.432;5.482;2023-09-18T14:05:51;20.75;;;2.33;;
53833;SDS011;39735;51.432;5.482;2023-09-18T14:08:17;2.20;;;2.13;;
53833;SDS011;39735;51.432;5.482;2023-09-18T14:10:43;7.55;;;3.08;;
53833;SDS011;39735;51.432;5.482;2023-09-18T14:13:08;10.93;;;1.85;;
53833;SDS011;39735;51.432;5.482;2023-09-18T14:15:33;5.38;;;1.88;;
53833;SDS011;39735;51.432;5.482;2023-09-18T14:17:58;19.85;;;2.83;;
53833;SDS011;39735;51.432;5.482;2023-09-18T14:20:24;1.47;;;1.37;;
53833;SDS011;39735;51.432;5.482;2023-09-18T14:22:49;9.82;;;1.65;;
53833;SDS011;39735;51.432;5.482;2023-09-18T14:25:15;10.82;;;1.95;;
53833;SDS011;39735;51.432;5.482;2023-09-18T14:27:41;3.42;;;2.10;;
53833;SDS011;39735;51.432;5.482;2023-09-18T14:30:07;16.17;;;2.47;;
53833;SDS011;39735;51.432;5.482;2023-09-18T14:32:33;6.45;;;2.53;;
53833;SDS011;39735;51.432;5.482;2023-09-18T14:34:58;3.47;;;2.70;;
53833;SDS011;39735;51.432;5.482;2023-09-18T14:37:26;2.47;;;1.67;;
53833;SDS011;39735;51.432;5.482;2023-09-18T14:39:51;7.03;;;1.83;;
53833;SDS011;39735;51.432;5.482;2023-09-18T14:42:17;13.33;;;2.33;;